Bankston, Mississippi
Current Conditions -  °F | °C
As of 8:55 PM on Friday 21 Nov 2014 (Local Time) from KGTR Reporting Station
Broken Clouds Broken Clouds  
Wind Chill: 57°   Ceiling: 10000
Heat Index: 57°   Visibility: 10mi
Dew Point: 46°   Wind: 9mph
Humidity: 67%   Direction: 140°SE
Pressure: 30.31"   Gusts: NA
Location:  33.2519°N, 89.2719°W
Report Text: KGTR 220255Z 14008KT 10SM BKN100 14/08 A3031 RMK AO1 54000
Loading
Personal Weather Stations






























Interactive Weather Map New forecast layout! Learn more

10-Day Weather Forecast

Advertisements
Track Severe Weather on mobile